createdAt,value
2023-02-08T00:01:17.739Z,100151.97
2023-02-08T00:03:46.064Z,100156.56
2023-02-08T00:06:14.944Z,100157.44
2023-02-08T00:08:43.049Z,100150.00
2023-02-08T00:11:12.265Z,100149.50
2023-02-08T00:13:42.251Z,100148.72
2023-02-08T00:16:13.894Z,100141.31
2023-02-08T00:18:42.429Z,100129.13
2023-02-08T00:21:12.143Z,100143.81
2023-02-08T00:23:40.860Z,100136.94
2023-02-08T00:26:10.267Z,100139.56
2023-02-08T00:28:38.485Z,100139.03
2023-02-08T00:31:07.703Z,100132.03
2023-02-08T00:33:37.350Z,100138.44
2023-02-08T00:36:07.985Z,100138.69
2023-02-08T00:38:36.574Z,100149.34
2023-02-08T00:41:05.066Z,100131.59
2023-02-08T00:43:33.271Z,100144.31
2023-02-08T00:46:01.877Z,100151.09
2023-02-08T00:48:30.256Z,100147.19
2023-02-08T00:51:01.442Z,100147.72
2023-02-08T00:53:29.778Z,100151.09
2023-02-08T00:55:58.090Z,100156.53
2023-02-08T00:58:26.337Z,100157.38
2023-02-08T01:00:55.048Z,100170.00
2023-02-08T01:03:23.907Z,100156.09
2023-02-08T01:05:52.617Z,100160.47
2023-02-08T01:08:23.122Z,100163.59
2023-02-08T01:10:51.541Z,100170.81
2023-02-08T01:13:19.703Z,100172.22
2023-02-08T01:15:48.055Z,100170.47
2023-02-08T01:18:16.341Z,100170.28
2023-02-08T01:20:44.451Z,100163.69
2023-02-08T01:23:12.495Z,100155.72
2023-02-08T01:25:42.730Z,100163.03
2023-02-08T01:28:11.278Z,100158.97
2023-02-08T01:30:39.979Z,100161.38
2023-02-08T01:33:08.561Z,100143.81
2023-02-08T01:35:36.755Z,100154.59
2023-02-08T01:38:05.154Z,100160.00
2023-02-08T01:40:33.509Z,100156.94
2023-02-08T01:43:02.935Z,100152.34
2023-02-08T01:45:33.519Z,100151.94
2023-02-08T01:48:10.045Z,100149.88
2023-02-08T01:50:46.412Z,100157.16
2023-02-08T01:53:15.001Z,100155.59
2023-02-08T01:55:49.185Z,100140.31
2023-02-08T01:58:20.431Z,100159.75
2023-02-08T02:00:49.940Z,100151.28
2023-02-08T02:03:19.942Z,100151.66
2023-02-08T02:05:51.465Z,100149.19
2023-02-08T02:08:20.286Z,100155.38
2023-02-08T02:10:50.648Z,100146.00
2023-02-08T02:13:23.881Z,100144.50
2023-02-08T02:15:53.185Z,100149.00
2023-02-08T02:18:26.408Z,100129.06
2023-02-08T02:21:21.468Z,100127.56
2023-02-08T02:24:27.133Z,100135.63
2023-02-08T02:27:11.353Z,100123.88
2023-02-08T02:30:05.501Z,100128.22
2023-02-08T02:32:48.086Z,100134.75
2023-02-08T02:35:26.777Z,100134.13
2023-02-08T02:38:08.518Z,100133.22
2023-02-08T02:40:43.036Z,100134.00
2023-02-08T02:43:32.806Z,100137.81
2023-02-08T02:46:07.667Z,100141.81
2023-02-08T02:48:43.801Z,100142.13
2023-02-08T02:51:17.997Z,100156.44
2023-02-08T02:53:54.136Z,100147.97
2023-02-08T02:56:25.823Z,100152.06
2023-02-08T02:58:57.809Z,100146.13
2023-02-08T03:01:26.920Z,100150.59
2023-02-08T03:03:57.167Z,100145.47
2023-02-08T03:06:47.385Z,100147.75
2023-02-08T03:09:37.286Z,100139.31
2023-02-08T03:12:16.940Z,100145.19
2023-02-08T03:14:58.936Z,100147.13
2023-02-08T03:17:38.512Z,100143.41
2023-02-08T03:20:11.152Z,100142.16
2023-02-08T03:22:46.734Z,100139.38
2023-02-08T03:25:22.129Z,100145.09
2023-02-08T03:28:02.989Z,100138.75
2023-02-08T03:30:35.806Z,100138.91
2023-02-08T03:33:08.066Z,100144.75
2023-02-08T03:35:41.802Z,100136.78
2023-02-08T03:38:12.112Z,100140.56
2023-02-08T03:40:43.996Z,100142.72
2023-02-08T03:43:17.161Z,100140.81
2023-02-08T03:45:52.014Z,100138.84
2023-02-08T03:48:23.391Z,100146.59
2023-02-08T03:50:56.186Z,100153.84
2023-02-08T03:53:26.147Z,100145.97
2023-02-08T03:55:59.862Z,100144.38
2023-02-08T03:58:29.519Z,100139.16
2023-02-08T04:01:05.397Z,100140.81
2023-02-08T04:03:35.307Z,100136.97
2023-02-08T04:06:05.319Z,100122.88
2023-02-08T04:08:33.630Z,100137.25
2023-02-08T04:11:01.509Z,100142.50
2023-02-08T04:13:29.529Z,100128.28
2023-02-08T04:15:57.685Z,100135.34
2023-02-08T04:18:25.727Z,100137.97
2023-02-08T04:20:53.917Z,100137.97
2023-02-08T04:23:23.273Z,100141.72
2023-02-08T04:25:51.666Z,100125.28
2023-02-08T04:28:19.754Z,100132.00
2023-02-08T04:30:48.199Z,100131.75
2023-02-08T04:33:17.033Z,100135.50
2023-02-08T04:35:45.138Z,100135.75
2023-02-08T04:38:13.266Z,100138.75
2023-02-08T04:40:43.065Z,100137.00
2023-02-08T04:43:11.324Z,100136.13
2023-02-08T04:45:39.404Z,100131.28
2023-02-08T04:48:08.030Z,100140.28
2023-02-08T04:50:36.321Z,100137.53
2023-02-08T04:53:04.397Z,100137.28
2023-02-08T04:55:32.503Z,100131.44
2023-02-08T04:58:02.110Z,100132.03
2023-02-08T05:00:30.379Z,100129.88
2023-02-08T05:03:00.238Z,100130.53
2023-02-08T05:05:28.748Z,100128.78
2023-02-08T05:07:56.931Z,100138.75
2023-02-08T05:10:24.925Z,100139.75
2023-02-08T05:12:53.145Z,100136.50
2023-02-08T05:15:23.641Z,100142.78
2023-02-08T05:17:51.688Z,100136.03
2023-02-08T05:20:20.146Z,100133.03
2023-02-08T05:22:48.381Z,100130.03
2023-02-08T05:25:18.182Z,100129.25
2023-02-08T05:27:46.243Z,100130.75
2023-02-08T05:30:14.708Z,100127.00
2023-02-08T05:32:44.490Z,100131.88
2023-02-08T05:35:12.593Z,100130.84
2023-02-08T05:37:40.828Z,100138.75
2023-02-08T05:40:10.486Z,100137.13
2023-02-08T05:42:38.568Z,100127.31
2023-02-08T05:45:07.483Z,100147.88
2023-02-08T05:47:35.815Z,100137.72
2023-02-08T05:50:05.683Z,100136.94
2023-02-08T05:52:34.081Z,100127.47
2023-02-08T05:55:03.046Z,100132.72
2023-02-08T05:57:34.274Z,100133.19
2023-02-08T06:00:04.438Z,100139.44
2023-02-08T06:02:34.286Z,100143.75
2023-02-08T06:05:02.364Z,100141.72
2023-02-08T06:07:31.997Z,100142.38
2023-02-08T06:10:00.093Z,100137.25
2023-02-08T06:12:28.557Z,100139.22
2023-02-08T06:14:56.583Z,100143.59
2023-02-08T06:17:24.689Z,100144.72
2023-02-08T06:19:53.082Z,100143.22
2023-02-08T06:22:21.088Z,100149.44
2023-02-08T06:24:50.798Z,100149.28
2023-02-08T06:27:19.431Z,100142.84
2023-02-08T06:29:47.589Z,100157.53
2023-02-08T06:32:16.138Z,100166.06
2023-02-08T06:34:44.695Z,100175.16
2023-02-08T06:37:13.273Z,100159.38
2023-02-08T06:39:41.533Z,100161.44
2023-02-08T06:42:12.038Z,100165.59
2023-02-08T06:44:51.451Z,100164.72
2023-02-08T06:47:22.380Z,100158.34
2023-02-08T06:49:50.659Z,100165.84
2023-02-08T06:52:18.945Z,100161.34
2023-02-08T06:54:47.920Z,100145.44
2023-02-08T06:57:17.922Z,100161.53
2023-02-08T06:59:46.961Z,100151.19
2023-02-08T07:02:18.264Z,100156.91
2023-02-08T07:04:46.734Z,100156.59
2023-02-08T07:07:16.288Z,100151.97
2023-02-08T07:09:44.552Z,100157.44
2023-02-08T07:12:13.963Z,100153.63
2023-02-08T07:14:44.914Z,100149.44
2023-02-08T07:17:13.728Z,100151.72
2023-02-08T07:19:42.305Z,100149.22
2023-02-08T07:22:10.513Z,100155.84
2023-02-08T07:24:40.426Z,100154.03
2023-02-08T07:27:12.097Z,100169.38
2023-02-08T07:29:40.828Z,100169.75
2023-02-08T07:32:11.779Z,100166.72
2023-02-08T07:34:40.812Z,100174.94
2023-02-08T07:37:09.294Z,100167.13
2023-02-08T07:39:37.390Z,100172.66
2023-02-08T07:42:06.713Z,100171.88
2023-02-08T07:44:34.643Z,100165.25
2023-02-08T07:47:02.907Z,100169.72
2023-02-08T07:49:33.600Z,100168.88
2023-02-08T07:52:04.195Z,100163.97
2023-02-08T07:54:33.079Z,100164.50
2023-02-08T07:57:03.530Z,100161.81
2023-02-08T07:59:32.110Z,100162.66
2023-02-08T08:02:00.337Z,100157.66
2023-02-08T08:04:28.616Z,100166.38
2023-02-08T08:06:58.201Z,100153.94
2023-02-08T08:09:26.646Z,100158.72
2023-02-08T08:11:54.946Z,100163.69
2023-02-08T08:14:23.246Z,100155.44
2023-02-08T08:16:51.169Z,100159.28
2023-02-08T08:19:19.318Z,100157.63
2023-02-08T08:21:47.489Z,100155.53
2023-02-08T08:24:16.856Z,100148.53
2023-02-08T08:26:44.818Z,100141.63
2023-02-08T08:29:13.607Z,100140.22
2023-02-08T08:31:42.951Z,100143.16
2023-02-08T08:34:11.225Z,100144.50
2023-02-08T08:36:39.790Z,100139.25
2023-02-08T08:39:07.865Z,100137.13
2023-02-08T08:41:37.387Z,100141.66
2023-02-08T08:44:05.668Z,100132.00
2023-02-08T08:46:33.770Z,100128.91
2023-02-08T08:49:01.950Z,100130.69
2023-02-08T08:51:31.957Z,100128.72
2023-02-08T08:54:00.217Z,100127.00
2023-02-08T08:56:28.536Z,100125.28
2023-02-08T08:58:58.702Z,100119.09
2023-02-08T09:01:27.411Z,100115.31
2023-02-08T09:03:55.679Z,100116.94
2023-02-08T09:06:24.119Z,100112.69
2023-02-08T09:08:52.064Z,100115.19
2023-02-08T09:11:20.319Z,100112.66
2023-02-08T09:13:51.691Z,100109.28
2023-02-08T09:16:22.114Z,100115.38
2023-02-08T09:18:50.423Z,100121.13
2023-02-08T09:21:21.069Z,100115.72
2023-02-08T09:23:49.950Z,100125.94
2023-02-08T09:26:20.267Z,100129.91
2023-02-08T09:28:48.877Z,100128.72
2023-02-08T09:31:22.859Z,100129.63
2023-02-08T09:33:52.259Z,100123.53
2023-02-08T09:36:21.545Z,100128.03
2023-02-08T09:38:52.200Z,100114.94
2023-02-08T09:41:33.785Z,100121.72
2023-02-08T09:44:17.311Z,100115.47
2023-02-08T09:46:57.361Z,100110.84
2023-02-08T09:49:29.676Z,100113.47
2023-02-08T09:52:03.281Z,100113.19
2023-02-08T09:54:35.015Z,100117.91
2023-02-08T09:57:08.036Z,100120.59
2023-02-08T09:59:37.365Z,100100.88
2023-02-08T10:02:21.260Z,100099.75
2023-02-08T10:04:58.453Z,100095.63
2023-02-08T10:07:27.806Z,100097.66
2023-02-08T10:09:59.960Z,100091.34
2023-02-08T10:12:41.736Z,100099.63
2023-02-08T10:15:23.163Z,100102.41
2023-02-08T10:18:09.870Z,100090.88
2023-02-08T10:20:51.477Z,100080.63
2023-02-08T10:23:34.697Z,100082.44
2023-02-08T10:26:16.181Z,100075.69
2023-02-08T10:29:07.408Z,100060.19
2023-02-08T10:31:54.334Z,100077.28
2023-02-08T10:34:36.974Z,100061.38
2023-02-08T10:37:17.085Z,100066.03
2023-02-08T10:39:46.883Z,100066.56
2023-02-08T10:42:16.985Z,100062.28
2023-02-08T10:44:57.733Z,100062.88
2023-02-08T10:47:38.221Z,100051.59
2023-02-08T10:50:15.326Z,100045.31
2023-02-08T10:52:43.819Z,100053.19
2023-02-08T10:55:15.509Z,100049.56
2023-02-08T10:57:44.822Z,100035.50
2023-02-08T11:00:19.302Z,100035.56
2023-02-08T11:02:49.592Z,100025.03
2023-02-08T11:05:21.151Z,100030.88
2023-02-08T11:07:49.149Z,100012.19
2023-02-08T11:10:25.240Z,100022.84
2023-02-08T11:12:59.886Z,100021.91
2023-02-08T11:15:31.687Z,100006.59
2023-02-08T11:18:02.885Z,100005.59
2023-02-08T11:20:38.556Z,100008.00
2023-02-08T11:23:17.179Z,100005.06
2023-02-08T11:25:45.952Z,100000.53
2023-02-08T11:28:25.946Z,100002.72
2023-02-08T11:31:02.345Z,99995.66
2023-02-08T11:33:32.079Z,100001.97
2023-02-08T11:36:05.681Z,99992.56
2023-02-08T11:38:37.042Z,99974.63
2023-02-08T11:41:15.819Z,99977.75
2023-02-08T11:43:44.955Z,99971.59
2023-02-08T11:46:13.174Z,99973.69
2023-02-08T11:48:45.557Z,99964.44
2023-02-08T11:51:26.740Z,99968.75
2023-02-08T11:53:55.702Z,99965.91
2023-02-08T11:56:27.612Z,99961.94
2023-02-08T11:59:06.836Z,99967.06
2023-02-08T12:01:36.681Z,99961.44
2023-02-08T12:04:08.081Z,99960.56
2023-02-08T12:07:01.129Z,99958.16
2023-02-08T12:09:44.901Z,99956.13
2023-02-08T12:12:23.447Z,99956.91
2023-02-08T12:15:03.421Z,99943.38
2023-02-08T12:17:51.446Z,99920.13
2023-02-08T12:20:34.534Z,99925.13
2023-02-08T12:23:26.404Z,99913.09
2023-02-08T12:26:06.145Z,99922.91
2023-02-08T12:28:47.411Z,99905.66
2023-02-08T12:31:25.920Z,99906.72
2023-02-08T12:34:09.166Z,99906.41
2023-02-08T12:36:50.063Z,99894.84
2023-02-08T12:39:53.482Z,99885.59
2023-02-08T12:42:44.566Z,99875.16
2023-02-08T12:45:42.823Z,99848.50
2023-02-08T12:48:43.449Z,99871.06
2023-02-08T12:51:20.672Z,99871.44
2023-02-08T12:53:54.397Z,99862.59
2023-02-08T12:56:28.596Z,99864.03
2023-02-08T12:59:13.162Z,99851.03
2023-02-08T13:01:48.319Z,99859.47
2023-02-08T13:04:23.210Z,99858.53
2023-02-08T13:06:58.396Z,99860.59
2023-02-08T13:09:39.625Z,99864.94
2023-02-08T13:12:16.801Z,99858.22
2023-02-08T13:14:49.437Z,99852.06
2023-02-08T13:17:22.487Z,99851.28
2023-02-08T13:20:01.043Z,99843.03
2023-02-08T13:22:35.430Z,99849.09
2023-02-08T13:25:10.607Z,99847.47
2023-02-08T13:27:41.509Z,99846.53
2023-02-08T13:30:19.743Z,99855.03
2023-02-08T13:32:50.531Z,99847.59
2023-02-08T13:35:25.572Z,99847.88
2023-02-08T13:37:59.988Z,99840.75
2023-02-08T13:40:32.578Z,99839.97
2023-02-08T13:43:04.953Z,99834.47
2023-02-08T13:45:37.685Z,99839.75
2023-02-08T13:48:08.473Z,99842.56
2023-02-08T13:50:47.147Z,99835.56
2023-02-08T13:53:17.503Z,99833.31
2023-02-08T13:56:01.777Z,99832.75
2023-02-08T13:58:37.008Z,99835.88
2023-02-08T14:01:17.008Z,99831.28
2023-02-08T14:03:45.766Z,99826.56
2023-02-08T14:06:23.452Z,99829.31
2023-02-08T14:08:58.521Z,99841.41
2023-02-08T14:11:40.363Z,99838.78
2023-02-08T14:14:19.356Z,99830.22
2023-02-08T14:16:49.622Z,99821.28
2023-02-08T14:19:25.716Z,99821.41
2023-02-08T14:22:03.691Z,99822.59
2023-02-08T14:24:34.539Z,99825.34
2023-02-08T14:27:10.918Z,99828.53
2023-02-08T14:29:40.835Z,99825.84
2023-02-08T14:32:10.002Z,99817.00
2023-02-08T14:34:41.822Z,99819.78
2023-02-08T14:37:29.580Z,99818.72
2023-02-08T14:40:31.271Z,99815.16
2023-02-08T14:43:00.804Z,99822.22
2023-02-08T14:45:33.942Z,99790.84
2023-02-08T14:48:19.411Z,99805.66
2023-02-08T14:51:04.480Z,99803.75
2023-02-08T14:53:41.188Z,99804.72
2023-02-08T14:56:19.895Z,99806.56
2023-02-08T14:58:51.296Z,99800.88
2023-02-08T15:01:24.229Z,99808.13
2023-02-08T15:03:57.079Z,99799.81
2023-02-08T15:06:55.217Z,99803.84
2023-02-08T15:09:25.696Z,99803.16
2023-02-08T15:12:06.154Z,99807.59
2023-02-08T15:14:37.720Z,99795.91
2023-02-08T15:17:08.339Z,99796.50
2023-02-08T15:19:39.134Z,99796.59
2023-02-08T15:22:21.668Z,99793.38
2023-02-08T15:24:54.208Z,99793.38
2023-02-08T15:27:24.897Z,99789.69
2023-02-08T15:29:53.988Z,99788.06
2023-02-08T15:32:26.664Z,99790.19
2023-02-08T15:34:57.810Z,99784.94
2023-02-08T15:37:27.365Z,99802.69
2023-02-08T15:39:57.764Z,99805.56
2023-02-08T15:42:28.880Z,99793.41
2023-02-08T15:44:57.189Z,99800.94
2023-02-08T15:47:29.812Z,99792.09
2023-02-08T15:49:59.087Z,99799.75
2023-02-08T15:52:31.749Z,99801.13
2023-02-08T15:54:59.839Z,99800.19
2023-02-08T15:57:37.378Z,99808.47
2023-02-08T16:00:12.824Z,99805.81
2023-02-08T16:02:43.074Z,99808.03
2023-02-08T16:05:21.491Z,99798.41
2023-02-08T16:07:51.995Z,99801.09
2023-02-08T16:10:30.689Z,99793.19
2023-02-08T16:13:00.687Z,99791.34
2023-02-08T16:15:42.976Z,99793.66
2023-02-08T16:18:40.018Z,99803.88
2023-02-08T16:21:21.556Z,99800.81
2023-02-08T16:23:56.630Z,99801.59
2023-02-08T16:26:28.898Z,99802.84
2023-02-08T16:29:00.441Z,99806.53
2023-02-08T16:31:31.237Z,99805.53
2023-02-08T16:34:06.778Z,99795.28
2023-02-08T16:36:38.505Z,99809.75
2023-02-08T16:39:42.387Z,99808.00
2023-02-08T16:42:24.737Z,99812.00
2023-02-08T16:45:03.940Z,99805.06
2023-02-08T16:47:38.936Z,99819.69
2023-02-08T16:50:10.731Z,99811.03
2023-02-08T16:52:39.380Z,99820.44
2023-02-08T16:55:08.826Z,99822.41
2023-02-08T16:57:42.882Z,99816.72
2023-02-08T17:00:23.168Z,99815.25
2023-02-08T17:02:52.083Z,99831.50
2023-02-08T17:05:23.577Z,99827.38
2023-02-08T17:07:53.856Z,99827.53
2023-02-08T17:10:28.664Z,99832.81
2023-02-08T17:13:13.483Z,99839.28
2023-02-08T17:15:46.742Z,99834.28
2023-02-08T17:18:15.573Z,99834.13
2023-02-08T17:20:45.587Z,99840.69
2023-02-08T17:23:15.654Z,99831.94
2023-02-08T17:25:44.712Z,99830.88
2023-02-08T17:28:17.658Z,99832.25
2023-02-08T17:30:47.193Z,99836.69
2023-02-08T17:33:18.652Z,99832.44
2023-02-08T17:35:50.517Z,99826.72
2023-02-08T17:38:21.751Z,99833.69
2023-02-08T17:40:50.048Z,99835.78
2023-02-08T17:43:19.070Z,99827.34
2023-02-08T17:45:47.837Z,99828.38
2023-02-08T17:48:16.335Z,99828.50
2023-02-08T17:50:51.173Z,99832.25
2023-02-08T17:53:21.131Z,99826.25
2023-02-08T17:55:49.562Z,99815.88
2023-02-08T17:58:18.091Z,99826.66
2023-02-08T18:00:46.329Z,99832.41
2023-02-08T18:03:17.422Z,99821.84
2023-02-08T18:05:45.765Z,99829.66
2023-02-08T18:08:14.011Z,99821.28
2023-02-08T18:10:43.701Z,99827.47
2023-02-08T18:13:11.984Z,99826.47
2023-02-08T18:15:41.668Z,99823.31
2023-02-08T18:18:09.992Z,99820.66
2023-02-08T18:20:38.120Z,99823.69
2023-02-08T18:23:06.143Z,99815.84
2023-02-08T18:25:34.444Z,99824.03
2023-02-08T18:28:04.116Z,99828.56
2023-02-08T18:30:34.001Z,99825.00
2023-02-08T18:33:02.558Z,99806.66
2023-02-08T18:35:31.262Z,99819.25
2023-02-08T18:37:59.430Z,99819.66
2023-02-08T18:40:30.449Z,99822.72
2023-02-08T18:42:59.899Z,99826.88
2023-02-08T18:45:29.767Z,99823.19
2023-02-08T18:47:59.088Z,99819.16
2023-02-08T18:50:30.011Z,99811.28
2023-02-08T18:52:59.426Z,99826.41
2023-02-08T18:55:28.642Z,99833.09
2023-02-08T18:57:56.960Z,99820.97
2023-02-08T19:00:25.453Z,99818.38
2023-02-08T19:02:56.171Z,99821.66
2023-02-08T19:05:27.335Z,99822.22
2023-02-08T19:07:59.249Z,99822.59
2023-02-08T19:10:27.921Z,99829.38
2023-02-08T19:12:56.933Z,99828.78
2023-02-08T19:15:25.903Z,99817.41
2023-02-08T19:17:56.403Z,99826.44
2023-02-08T19:20:25.247Z,99820.88
2023-02-08T19:22:55.185Z,99823.94
2023-02-08T19:25:24.605Z,99820.44
2023-02-08T19:27:53.330Z,99827.56
2023-02-08T19:30:22.339Z,99823.94
2023-02-08T19:32:50.630Z,99808.28
2023-02-08T19:35:21.269Z,99805.44
2023-02-08T19:37:51.648Z,99813.22
2023-02-08T19:40:20.859Z,99802.69
2023-02-08T19:42:49.203Z,99810.06
2023-02-08T19:45:17.590Z,99816.75
2023-02-08T19:47:51.418Z,99818.63
2023-02-08T19:50:23.592Z,99815.06
2023-02-08T19:52:52.292Z,99819.25
2023-02-08T19:55:20.698Z,99815.09
2023-02-08T19:57:51.303Z,99808.84
2023-02-08T20:00:23.728Z,99785.94
2023-02-08T20:02:54.281Z,99813.00
2023-02-08T20:05:28.820Z,99800.66
2023-02-08T20:07:57.466Z,99810.31
2023-02-08T20:10:25.992Z,99801.47
2023-02-08T20:12:54.884Z,99798.03
2023-02-08T20:15:23.136Z,99800.84
2023-02-08T20:17:51.269Z,99801.75
2023-02-08T20:20:20.132Z,99797.06
2023-02-08T20:22:53.710Z,99802.03
2023-02-08T20:25:22.349Z,99805.06
2023-02-08T20:27:50.832Z,99799.41
2023-02-08T20:30:20.983Z,99802.88
2023-02-08T20:32:50.646Z,99805.06
2023-02-08T20:35:20.540Z,99803.84
2023-02-08T20:37:50.593Z,99802.56
2023-02-08T20:40:18.662Z,99799.19
2023-02-08T20:42:50.321Z,99783.31
2023-02-08T20:45:22.500Z,99771.16
2023-02-08T20:47:58.543Z,99794.31
2023-02-08T20:50:27.870Z,99780.34
2023-02-08T20:52:58.044Z,99787.56
2023-02-08T20:55:26.566Z,99794.31
2023-02-08T20:57:54.725Z,99784.44
2023-02-08T21:00:26.059Z,99784.00
2023-02-08T21:03:02.255Z,99793.28
2023-02-08T21:05:31.997Z,99786.34
2023-02-08T21:08:02.333Z,99782.09
2023-02-08T21:10:30.992Z,99785.41
2023-02-08T21:13:01.071Z,99783.41
2023-02-08T21:15:29.388Z,99776.88
2023-02-08T21:17:57.783Z,99766.81
2023-02-08T21:20:26.031Z,99772.81
2023-02-08T21:22:55.240Z,99782.19
2023-02-08T21:25:24.571Z,99778.38
2023-02-08T21:27:54.630Z,99779.06
2023-02-08T21:30:23.061Z,99783.16
2023-02-08T21:32:51.654Z,99767.00
2023-02-08T21:35:20.859Z,99765.38
2023-02-08T21:37:49.447Z,99775.16
2023-02-08T21:40:18.068Z,99768.13
2023-02-08T21:42:48.275Z,99765.34
2023-02-08T21:45:19.139Z,99773.34
2023-02-08T21:47:49.088Z,99774.53
2023-02-08T21:50:34.365Z,99770.75
2023-02-08T21:53:19.830Z,99772.22
2023-02-08T21:55:48.795Z,99772.63
2023-02-08T21:58:18.443Z,99773.19
2023-02-08T22:00:46.763Z,99769.69
2023-02-08T22:03:15.112Z,99771.25
2023-02-08T22:06:00.780Z,99756.75
2023-02-08T22:08:29.168Z,99760.66
2023-02-08T22:11:04.730Z,99748.53
2023-02-08T22:13:35.177Z,99755.38
2023-02-08T22:16:08.724Z,99760.84
2023-02-08T22:18:37.380Z,99740.34
2023-02-08T22:21:06.010Z,99763.78
2023-02-08T22:23:36.772Z,99767.75
2023-02-08T22:26:08.851Z,99743.47
2023-02-08T22:28:40.494Z,99758.31
2023-02-08T22:31:10.509Z,99756.13
2023-02-08T22:33:39.407Z,99765.31
2023-02-08T22:36:09.357Z,99765.06
2023-02-08T22:38:41.666Z,99758.38
2023-02-08T22:41:15.125Z,99761.31
2023-02-08T22:43:44.923Z,99749.31
2023-02-08T22:46:15.300Z,99764.88
2023-02-08T22:48:44.760Z,99751.59
2023-02-08T22:51:17.220Z,99742.75
2023-02-08T22:53:47.729Z,99730.94
2023-02-08T22:56:17.187Z,99750.72
2023-02-08T22:58:46.769Z,99746.19
2023-02-08T23:01:16.267Z,99748.09
2023-02-08T23:03:44.588Z,99733.72
2023-02-08T23:06:17.168Z,99732.69
2023-02-08T23:08:46.463Z,99733.97
2023-02-08T23:11:16.653Z,99730.41
2023-02-08T23:13:48.657Z,99734.03
2023-02-08T23:16:19.135Z,99732.31
2023-02-08T23:18:51.242Z,99731.75
2023-02-08T23:21:22.266Z,99732.63
2023-02-08T23:23:51.958Z,99733.78
2023-02-08T23:26:23.366Z,99721.53
2023-02-08T23:28:55.529Z,99731.94
2023-02-08T23:31:24.523Z,99734.94
2023-02-08T23:33:53.087Z,99699.94
2023-02-08T23:36:23.443Z,99703.31
2023-02-08T23:38:54.547Z,99720.84
2023-02-08T23:41:26.613Z,99708.00
2023-02-08T23:43:55.987Z,99720.84
2023-02-08T23:46:27.178Z,99707.94
2023-02-08T23:48:56.042Z,99715.03
2023-02-08T23:51:26.033Z,99705.97
2023-02-08T23:53:55.308Z,99717.97
2023-02-08T23:56:25.713Z,99717.78
2023-02-08T23:59:00.795Z,99706.38
